Mount Carmel, TN (37645)

8:22 AM EST on March 02, 2015 (GMT -0500)
west carters valley | Change Station
CLOSE
Current Station
Personal Weather Station
Location: Church Hill, TN
Elevation: 1453 ft
Nearby Weather Stations

Elev 1453 ft 36.57 °N, 82.69 °W | Updated 4 minutes ago

Overcast
Overcast
37.0 °F
Feels Like 37 °F
N
0.0
Wind Variable Wind from NNE

Today
High -- | Low -- °F
--% Chance of Precip.
Yesterday
High -- | Low -- °F
Precip. -- in
7:00 AM 6:25 PM
Waxing Gibbous, 91% visible
Pressure 30.37 in
Visibility 6.0 miles
Clouds Mostly Cloudy 900 ft
Overcast 1400 ft
Windchill 37 °F
Dew Point 37 °F
Humidity 99%
Rainfall 0.40 in
Snow Depth Not available.
UV 0 out of 12
Pollen 1.60 out of 12
Air Quality Not available.
Flu Activity Not available.
SPECI KTRI 021314Z 29007KT 6SM -RA BR BKN009 OVC014 06/05 A3037 RMK AO2 RAB11 CIG 007V012 P0000 T00560050

More Conditions Fewer Conditions

Pressure 30.37 in
Visibility 6.0 miles
Clouds Mostly Cloudy 900 ft
Overcast 1400 ft
Windchill 37 °F
Dew Point 37 °F
Humidity 99%
Rainfall 0.40 in
Snow Depth Not available.
UV 0 out of 12
Pollen 1.60 out of 12
Air Quality Not available.
Flu Activity Not available.
SPECI KTRI 021314Z 29007KT 6SM -RA BR BKN009 OVC014 06/05 A3037 RMK AO2 RAB11 CIG 007V012 P0000 T00560050

More Conditions Fewer Conditions

10-Day Weather Forecast

Almanac

Astronomy

Mar. 02, 2015 Rise Set
Actual Time
Civil Twilight
Nautical Twilight
Astronomical Twilight
Moon
Length of Visible Light
Length of Day
Tomorrow will be .
, % of the Moon is Illuminated

Today's Extremes

State Highs State Lows

Community

WunderPhotos

Upload Photos

1,801,781 photos uploaded!

WunderBlogs® & News

Nearby

Air Quality

  Air Quality AQ Index Pollutant
Not available.

Snow Depth

Station Depth Elevation

Earthquake Activity

City Distance Mag. Time & Date
Minimum magnitude displayed is 2.5.

Coastal Water Temperatures

Place Temperature

Nearby Weather Stations